createdAt,value
2023-04-20T00:02:49.736Z,9.09
2023-04-20T00:06:02.173Z,8.94
2023-04-20T00:09:15.124Z,8.85
2023-04-20T00:12:27.877Z,8.70
2023-04-20T00:15:40.712Z,8.60
2023-04-20T00:18:55.474Z,8.54
2023-04-20T00:22:08.006Z,8.56
2023-04-20T00:25:20.360Z,8.57
2023-04-20T00:28:32.599Z,8.53
2023-04-20T00:31:45.232Z,8.53
2023-04-20T00:34:59.226Z,8.53
2023-04-20T00:38:11.374Z,8.47
2023-04-20T00:41:23.773Z,8.40
2023-04-20T00:44:37.801Z,8.23
2023-04-20T00:47:50.069Z,8.12
2023-04-20T00:51:02.758Z,8.12
2023-04-20T00:54:15.675Z,8.10
2023-04-20T00:57:28.377Z,8.17
2023-04-20T01:00:44.588Z,8.26
2023-04-20T01:03:57.264Z,8.32
2023-04-20T01:07:10.131Z,8.29
2023-04-20T01:10:22.445Z,8.22
2023-04-20T01:13:34.671Z,8.15
2023-04-20T01:16:47.505Z,8.12
2023-04-20T01:20:00.284Z,8.19
2023-04-20T01:23:13.153Z,8.23
2023-04-20T01:26:28.175Z,8.19
2023-04-20T01:29:40.969Z,8.14
2023-04-20T01:32:55.035Z,8.25
2023-04-20T01:36:08.638Z,8.33
2023-04-20T01:39:21.724Z,8.33
2023-04-20T01:42:34.157Z,8.38
2023-04-20T01:45:46.509Z,8.45
2023-04-20T01:48:58.754Z,8.47
2023-04-20T01:52:11.789Z,8.48
2023-04-20T01:55:25.541Z,8.48
2023-04-20T01:58:37.950Z,8.48
2023-04-20T02:01:50.386Z,8.42
2023-04-20T02:05:02.673Z,8.41
2023-04-20T02:08:14.971Z,8.34
2023-04-20T02:11:27.182Z,8.30
2023-04-20T02:14:39.082Z,8.25
2023-04-20T02:17:54.031Z,8.22
2023-04-20T02:21:06.324Z,8.17
2023-04-20T02:24:18.335Z,8.15
2023-04-20T02:27:30.482Z,8.11
2023-04-20T02:30:42.672Z,8.10
2023-04-20T02:33:56.720Z,8.21
2023-04-20T02:37:09.200Z,8.23
2023-04-20T02:40:21.549Z,8.15
2023-04-20T02:43:35.541Z,8.15
2023-04-20T02:46:48.738Z,8.13
2023-04-20T02:50:02.651Z,8.09
2023-04-20T02:53:16.537Z,8.08
2023-04-20T02:56:31.047Z,8.12
2023-04-20T02:59:46.553Z,8.06
2023-04-20T03:03:12.827Z,8.10
2023-04-20T03:06:26.849Z,8.15
2023-04-20T03:09:41.255Z,8.19
2023-04-20T03:12:55.261Z,8.24
2023-04-20T03:16:18.588Z,8.27
2023-04-20T03:19:35.552Z,8.31
2023-04-20T03:22:48.686Z,8.32
2023-04-20T03:26:01.957Z,8.37
2023-04-20T03:29:33.145Z,8.39
2023-04-20T03:32:46.719Z,8.41
2023-04-20T03:35:58.991Z,8.43
2023-04-20T03:39:11.678Z,8.44
2023-04-20T03:42:23.719Z,8.46
2023-04-20T03:45:36.302Z,8.38
2023-04-20T03:48:48.330Z,8.37
2023-04-20T03:52:00.503Z,8.40
2023-04-20T03:55:14.858Z,8.42
2023-04-20T03:58:29.016Z,8.42
2023-04-20T04:01:48.870Z,8.46
2023-04-20T04:05:01.893Z,8.44
2023-04-20T04:08:14.121Z,8.45
2023-04-20T04:11:27.017Z,8.45
2023-04-20T04:14:39.701Z,8.48
2023-04-20T04:17:53.081Z,8.49
2023-04-20T04:21:05.404Z,8.49
2023-04-20T04:24:19.807Z,8.48
2023-04-20T04:27:35.047Z,8.49
2023-04-20T04:30:47.555Z,8.55
2023-04-20T04:34:00.140Z,8.56
2023-04-20T04:37:14.633Z,8.56
2023-04-20T04:40:29.441Z,8.58
2023-04-20T04:43:42.450Z,8.64
2023-04-20T04:47:02.820Z,8.70
2023-04-20T04:50:17.911Z,8.69
2023-04-20T04:53:31.140Z,8.71
2023-04-20T04:56:43.243Z,8.81
2023-04-20T04:59:55.898Z,8.90
2023-04-20T05:03:08.235Z,8.84
2023-04-20T05:06:20.514Z,8.81
2023-04-20T05:09:33.796Z,8.88
2023-04-20T05:12:48.870Z,8.96
2023-04-20T05:16:01.334Z,9.08
2023-04-20T05:19:13.367Z,9.10
2023-04-20T05:22:25.805Z,8.98
2023-04-20T05:25:38.633Z,9.10
2023-04-20T05:28:51.549Z,9.09
2023-04-20T05:32:04.140Z,9.24
2023-04-20T05:35:18.105Z,9.32
2023-04-20T05:38:31.053Z,9.40
2023-04-20T05:41:43.556Z,9.48
2023-04-20T05:44:56.118Z,9.55
2023-04-20T05:48:08.719Z,9.58
2023-04-20T05:51:22.318Z,9.44
2023-04-20T05:54:34.501Z,9.51
2023-04-20T05:57:46.887Z,9.65
2023-04-20T06:00:59.082Z,9.57
2023-04-20T06:04:11.502Z,9.63
2023-04-20T06:07:24.118Z,9.59
2023-04-20T06:10:36.530Z,9.69
2023-04-20T06:13:48.706Z,9.67
2023-04-20T06:17:01.041Z,9.79
2023-04-20T06:20:17.527Z,9.85
2023-04-20T06:23:29.754Z,9.84
2023-04-20T06:26:42.227Z,10.05
2023-04-20T06:29:55.185Z,10.16
2023-04-20T06:33:08.763Z,10.21
2023-04-20T06:36:21.840Z,10.24
2023-04-20T06:39:34.013Z,10.31
2023-04-20T06:42:46.584Z,10.26
2023-04-20T06:45:58.783Z,10.84
2023-04-20T06:49:11.203Z,11.52
2023-04-20T06:52:24.213Z,12.44
2023-04-20T06:55:36.804Z,12.10
2023-04-20T06:58:49.504Z,11.61
2023-04-20T07:02:01.924Z,11.35
2023-04-20T07:05:15.683Z,11.54
2023-04-20T07:08:28.578Z,11.72
2023-04-20T07:11:42.128Z,11.69
2023-04-20T07:14:55.198Z,11.64
2023-04-20T07:18:07.422Z,11.62
2023-04-20T07:21:19.806Z,11.70
2023-04-20T07:24:32.191Z,11.95
2023-04-20T07:27:46.022Z,12.42
2023-04-20T07:30:59.722Z,12.90
2023-04-20T07:34:12.130Z,12.73
2023-04-20T07:37:26.852Z,12.84
2023-04-20T07:40:38.782Z,12.92
2023-04-20T07:43:50.889Z,13.04
2023-04-20T07:47:03.390Z,13.28
2023-04-20T07:50:17.122Z,13.17
2023-04-20T07:53:29.388Z,13.02
2023-04-20T07:56:41.416Z,12.95
2023-04-20T07:59:54.929Z,12.67
2023-04-20T08:03:07.110Z,12.82
2023-04-20T08:06:19.579Z,12.77
2023-04-20T08:09:31.721Z,12.79
2023-04-20T08:12:44.656Z,12.61
2023-04-20T08:15:56.839Z,12.52
2023-04-20T08:19:10.632Z,12.54
2023-04-20T08:22:24.598Z,12.48
2023-04-20T08:25:37.376Z,12.43
2023-04-20T08:28:49.625Z,12.54
2023-04-20T08:32:02.126Z,12.61
2023-04-20T08:35:15.491Z,12.71
2023-04-20T08:38:33.727Z,12.72
2023-04-20T08:41:42.304Z,12.79
2023-04-20T08:44:54.804Z,12.97
2023-04-20T08:48:13.167Z,13.00
2023-04-20T08:51:25.562Z,13.11
2023-04-20T08:54:42.824Z,13.25
2023-04-20T08:57:54.268Z,13.07
2023-04-20T09:01:06.881Z,13.10
2023-04-20T09:04:28.759Z,13.11
2023-04-20T09:07:41.233Z,13.39
2023-04-20T09:10:53.491Z,13.67
2023-04-20T09:14:12.805Z,13.67
2023-04-20T09:17:36.411Z,13.87
2023-04-20T09:20:49.938Z,13.74
2023-04-20T09:24:10.832Z,13.94
2023-04-20T09:27:27.032Z,14.01
2023-04-20T09:30:47.603Z,14.13
2023-04-20T09:34:08.288Z,14.18
2023-04-20T09:37:23.176Z,14.23
2023-04-20T09:40:36.267Z,14.21
2023-04-20T09:43:49.057Z,14.12
2023-04-20T09:47:01.581Z,14.19
2023-04-20T09:50:26.637Z,14.16
2023-04-20T09:53:32.442Z,14.51
2023-04-20T09:56:45.890Z,15.08
2023-04-20T10:00:02.372Z,14.94
2023-04-20T10:03:19.112Z,14.52
2023-04-20T10:06:34.276Z,14.40
2023-04-20T10:09:46.778Z,14.10
2023-04-20T10:13:00.819Z,13.94
2023-04-20T10:16:23.195Z,13.92
2023-04-20T10:19:47.777Z,13.93
2023-04-20T10:23:03.556Z,14.00
2023-04-20T10:26:16.888Z,13.86
2023-04-20T10:29:35.876Z,13.87
2023-04-20T10:32:48.793Z,14.10
2023-04-20T10:36:02.149Z,14.18
2023-04-20T10:39:27.961Z,14.21
2023-04-20T10:42:50.689Z,14.18
2023-04-20T10:46:02.956Z,14.02
2023-04-20T10:49:15.412Z,14.12
2023-04-20T10:52:40.967Z,14.01
2023-04-20T10:55:55.804Z,14.05
2023-04-20T10:59:16.464Z,14.06
2023-04-20T11:02:29.197Z,14.22
2023-04-20T11:05:41.975Z,14.37
2023-04-20T11:08:54.461Z,14.59
2023-04-20T11:12:14.426Z,14.79
2023-04-20T11:15:36.790Z,15.10
2023-04-20T11:18:59.414Z,15.17
2023-04-20T11:22:12.807Z,15.30
2023-04-20T11:25:25.000Z,15.06
2023-04-20T11:28:38.947Z,15.09
2023-04-20T11:31:58.429Z,15.09
2023-04-20T11:35:14.971Z,15.16
2023-04-20T11:38:37.974Z,15.75
2023-04-20T11:41:50.248Z,15.82
2023-04-20T11:45:03.514Z,15.37
2023-04-20T11:48:16.054Z,15.96
2023-04-20T11:51:28.506Z,16.74
2023-04-20T11:54:40.750Z,17.08
2023-04-20T11:57:52.869Z,16.83
2023-04-20T12:01:05.671Z,17.13
2023-04-20T12:04:18.437Z,16.80
2023-04-20T12:07:31.838Z,16.72
2023-04-20T12:10:47.309Z,17.08
2023-04-20T12:14:00.585Z,17.03
2023-04-20T12:17:12.966Z,17.02
2023-04-20T12:20:25.481Z,16.78
2023-04-20T12:23:37.676Z,16.76
2023-04-20T12:26:50.165Z,16.81
2023-04-20T12:30:02.409Z,16.85
2023-04-20T12:33:14.872Z,16.81
2023-04-20T12:36:27.906Z,17.33
2023-04-20T12:39:40.269Z,17.96
2023-04-20T12:42:52.295Z,18.12
2023-04-20T12:46:04.464Z,18.13
2023-04-20T12:49:17.274Z,17.92
2023-04-20T12:52:29.788Z,17.81
2023-04-20T12:55:42.620Z,17.51
2023-04-20T12:58:54.764Z,17.95
2023-04-20T13:02:06.978Z,17.58
2023-04-20T13:05:20.062Z,17.22
2023-04-20T13:08:32.364Z,17.12
2023-04-20T13:11:44.880Z,17.12
2023-04-20T13:14:57.497Z,16.75
2023-04-20T13:18:10.464Z,16.54
2023-04-20T13:21:22.939Z,16.53
2023-04-20T13:24:35.358Z,16.37
2023-04-20T13:27:47.680Z,16.26
2023-04-20T13:31:00.419Z,16.35
2023-04-20T13:34:13.045Z,16.45
2023-04-20T13:37:26.077Z,16.69
2023-04-20T13:40:39.342Z,17.15
2023-04-20T13:43:52.164Z,17.18
2023-04-20T13:47:04.485Z,17.04
2023-04-20T13:50:18.020Z,16.85
2023-04-20T13:53:30.182Z,16.75
2023-04-20T13:56:43.100Z,16.54
2023-04-20T13:59:54.995Z,16.52
2023-04-20T14:03:07.435Z,16.83
2023-04-20T14:06:19.963Z,17.27
2023-04-20T14:09:32.766Z,17.36
2023-04-20T14:12:44.887Z,17.33
2023-04-20T14:15:58.724Z,17.20
2023-04-20T14:19:11.149Z,16.94
2023-04-20T14:22:23.381Z,16.94
2023-04-20T14:25:35.680Z,16.90
2023-04-20T14:28:47.777Z,16.81
2023-04-20T14:32:00.240Z,16.60
2023-04-20T14:35:14.340Z,16.61
2023-04-20T14:38:26.784Z,16.58
2023-04-20T14:41:39.990Z,16.43
2023-04-20T14:44:52.291Z,16.38
2023-04-20T14:48:04.781Z,16.34
2023-04-20T14:51:18.962Z,16.36
2023-04-20T14:54:32.807Z,16.43
2023-04-20T14:57:45.284Z,16.55
2023-04-20T15:00:58.348Z,16.44
2023-04-20T15:04:11.120Z,16.45
2023-04-20T15:07:23.482Z,16.37
2023-04-20T15:10:37.889Z,16.25
2023-04-20T15:13:52.283Z,16.17
2023-04-20T15:17:04.384Z,16.15
2023-04-20T15:20:19.707Z,16.14
2023-04-20T15:23:32.189Z,16.22
2023-04-20T15:26:44.481Z,16.18
2023-04-20T15:29:58.338Z,16.16
2023-04-20T15:33:12.179Z,16.07
2023-04-20T15:36:25.807Z,16.01
2023-04-20T15:39:38.116Z,16.00
2023-04-20T15:42:50.323Z,16.02
2023-04-20T15:46:03.794Z,16.00
2023-04-20T15:49:16.346Z,15.91
2023-04-20T15:52:28.818Z,15.73
2023-04-20T15:55:44.201Z,15.70
2023-04-20T15:58:56.871Z,15.59
2023-04-20T16:02:09.242Z,15.51
2023-04-20T16:05:21.575Z,15.47
2023-04-20T16:08:33.765Z,15.46
2023-04-20T16:11:46.897Z,15.47
2023-04-20T16:14:58.941Z,15.53
2023-04-20T16:18:11.776Z,15.49
2023-04-20T16:21:24.665Z,15.45
2023-04-20T16:24:37.044Z,15.36
2023-04-20T16:27:49.166Z,15.29
2023-04-20T16:31:01.638Z,15.28
2023-04-20T16:34:14.646Z,15.26
2023-04-20T16:37:26.971Z,15.21
2023-04-20T16:40:39.585Z,15.18
2023-04-20T16:43:52.122Z,15.15
2023-04-20T16:47:05.394Z,15.09
2023-04-20T16:50:19.877Z,15.04
2023-04-20T16:53:32.736Z,14.99
2023-04-20T16:56:45.428Z,15.00
2023-04-20T16:59:57.725Z,14.96
2023-04-20T17:03:13.735Z,14.91
2023-04-20T17:06:26.347Z,14.88
2023-04-20T17:09:39.477Z,14.83
2023-04-20T17:12:52.308Z,14.82
2023-04-20T17:16:04.661Z,14.75
2023-04-20T17:19:17.116Z,14.69
2023-04-20T17:22:30.152Z,14.60
2023-04-20T17:25:43.888Z,14.52
2023-04-20T17:28:56.182Z,14.48
2023-04-20T17:32:09.565Z,14.42
2023-04-20T17:35:22.941Z,14.36
2023-04-20T17:38:37.006Z,14.29
2023-04-20T17:41:50.261Z,14.19
2023-04-20T17:45:02.442Z,14.13
2023-04-20T17:48:14.999Z,14.08
2023-04-20T17:51:28.003Z,14.02
2023-04-20T17:54:40.386Z,13.99
2023-04-20T17:57:53.026Z,13.94
2023-04-20T18:01:05.303Z,13.88
2023-04-20T18:07:19.766Z,13.77
2023-04-20T18:10:32.311Z,13.74
2023-04-20T18:13:45.381Z,13.68
2023-04-20T18:16:58.991Z,13.66
2023-04-20T18:20:14.324Z,13.63
2023-04-20T18:23:26.437Z,13.57
2023-04-20T18:26:40.273Z,13.53
2023-04-20T18:29:54.006Z,13.53
2023-04-20T18:39:07.768Z,13.44
2023-04-20T18:51:20.761Z,13.15
2023-04-20T18:54:33.262Z,13.07
2023-04-20T18:57:45.371Z,13.02
2023-04-20T19:00:57.909Z,12.96
2023-04-20T19:04:13.182Z,12.90
2023-04-20T19:07:25.762Z,12.85
2023-04-20T19:10:37.924Z,12.77
2023-04-20T19:13:50.044Z,12.73
2023-04-20T19:17:02.244Z,12.64
2023-04-20T19:20:17.626Z,12.58
2023-04-20T19:23:30.092Z,12.50
2023-04-20T19:26:42.278Z,12.48
2023-04-20T19:29:54.449Z,12.42
2023-04-20T19:33:06.659Z,12.38
2023-04-20T19:36:19.735Z,12.32
2023-04-20T19:39:33.643Z,12.30
2023-04-20T19:42:48.588Z,12.18
2023-04-20T19:46:01.787Z,12.15
2023-04-20T19:49:14.156Z,12.09
2023-04-20T19:52:26.580Z,12.06
2023-04-20T19:55:38.965Z,11.99
2023-04-20T19:58:51.201Z,11.98
2023-04-20T20:02:03.673Z,11.97
2023-04-20T20:05:17.106Z,11.95
2023-04-20T20:08:29.161Z,11.86
2023-04-20T20:11:43.745Z,11.80
2023-04-20T20:14:56.410Z,11.76
2023-04-20T20:18:10.910Z,11.69
2023-04-20T20:21:23.167Z,11.62
2023-04-20T20:24:35.601Z,11.54
2023-04-20T20:27:48.711Z,11.46
2023-04-20T20:31:01.836Z,11.41
2023-04-20T20:34:14.768Z,11.35
2023-04-20T20:37:27.221Z,11.20
2023-04-20T20:40:39.974Z,11.22
2023-04-20T20:43:53.041Z,11.12
2023-04-20T20:47:05.349Z,11.12
2023-04-20T20:50:20.301Z,11.04
2023-04-20T20:53:32.643Z,10.95
2023-04-20T20:56:44.580Z,10.89
2023-04-20T21:02:57.403Z,10.73
2023-04-20T21:06:10.221Z,10.64
2023-04-20T21:09:22.267Z,10.54
2023-04-20T21:12:34.317Z,10.50
2023-04-20T21:21:46.590Z,10.38
2023-04-20T21:24:58.616Z,10.31
2023-04-20T21:28:11.000Z,10.21
2023-04-20T21:31:23.053Z,10.12
2023-04-20T21:34:35.094Z,10.06
2023-04-20T21:37:47.169Z,10.01
2023-04-20T21:40:59.155Z,9.98
2023-04-20T21:44:11.482Z,9.87
2023-04-20T21:47:23.484Z,9.76
2023-04-20T21:50:35.740Z,9.70
2023-04-20T21:53:48.149Z,9.66
2023-04-20T21:57:00.173Z,9.63
2023-04-20T22:00:15.692Z,9.56
2023-04-20T22:03:29.895Z,9.53
2023-04-20T22:06:42.054Z,9.50
2023-04-20T22:09:54.196Z,9.31
2023-04-20T22:13:06.669Z,9.25
2023-04-20T22:16:20.937Z,9.19
2023-04-20T22:19:33.717Z,9.17
2023-04-20T22:22:46.544Z,9.16
2023-04-20T22:25:58.740Z,9.14
2023-04-20T22:29:11.069Z,9.10
2023-04-20T22:32:23.193Z,9.08
2023-04-20T22:35:35.429Z,9.12
2023-04-20T22:38:47.427Z,9.09
2023-04-20T22:41:59.539Z,9.05
2023-04-20T22:45:14.509Z,9.07
2023-04-20T22:48:26.820Z,9.05
2023-04-20T22:51:38.816Z,9.03
2023-04-20T22:54:52.061Z,9.02
2023-04-20T22:58:04.149Z,9.02
2023-04-20T23:01:16.191Z,9.01
2023-04-20T23:04:28.267Z,9.03
2023-04-20T23:07:41.625Z,9.03
2023-04-20T23:10:53.877Z,9.07
2023-04-20T23:14:06.460Z,9.11
2023-04-20T23:17:18.447Z,9.09
2023-04-20T23:20:31.219Z,9.12
2023-04-20T23:23:43.313Z,9.23
2023-04-20T23:26:55.277Z,9.25
2023-04-20T23:30:07.482Z,9.30
2023-04-20T23:33:19.362Z,9.40
2023-04-20T23:36:31.451Z,9.37
2023-04-20T23:39:45.550Z,9.36
2023-04-20T23:42:57.547Z,9.37
2023-04-20T23:46:09.701Z,9.36
2023-04-20T23:49:21.839Z,9.37
2023-04-20T23:52:34.179Z,9.28
2023-04-20T23:55:48.313Z,9.27
2023-04-20T23:59:00.427Z,9.25
